Time;durP1;ratioP1;P1;durP2;ratioP2;P2;SDS_P1;SDS_P2;PMS_P1;PMS_P2;Temp;Humidity;BMP_temperature;BMP_pressure;BME280_temperature;BME280_humidity;BME280_pressure;Samples;Min_cycle;Max_cycle;Signal;HPM_P1;HPM_P2
2022/11/09 05:32:27;;;;;;;;;2.00;0.33;;;;;-147.14;100.00;58812.66;5009324;22;45450;-69
2022/11/09 05:34:53;;;;;;;;;1.00;1.00;;;;;-147.14;100.00;58812.66;4995684;28;65023;-69
2022/11/09 05:37:21;;;;;;;;;1.33;1.00;;;;;-147.14;100.00;58812.66;4995641;28;68609;-68
2022/11/09 05:39:46;;;;;;;;;4.33;1.00;;;;;-147.14;100.00;58812.66;4980134;28;46005;-69
2022/11/09 05:42:11;;;;;;;;;1.00;0.50;;;;;-147.14;100.00;58812.66;4993909;28;45460;-69
2022/11/09 05:44:37;;;;;;;;;2.00;0.33;;;;;-147.14;100.00;58812.66;4995926;28;45419;-69
2022/11/09 05:47:02;;;;;;;;;3.67;1.00;;;;;-147.14;100.00;58812.66;4994652;28;45538;-69
2022/11/09 05:49:27;;;;;;;;;1.00;1.00;;;;;-147.14;100.00;58812.66;4993574;28;75440;-68
2022/11/09 05:51:52;;;;;;;;;2.00;0.00;;;;;-147.14;100.00;58812.66;4989035;28;63922;-69
2022/11/09 05:54:18;;;;;;;;;1.00;1.00;;;;;-147.14;100.00;58812.66;4992661;28;66452;-69
2022/11/09 05:56:43;;;;;;;;;0.00;0.00;;;;;-147.14;100.00;58812.66;4994127;28;67370;-70
2022/11/09 05:59:08;;;;;;;;;2.00;1.00;;;;;-147.14;100.00;58812.66;4997605;28;68042;-69
2022/11/09 06:01:34;;;;;;;;;1.00;1.00;;;;;-147.14;100.00;58812.66;4994824;28;70036;-69
2022/11/09 06:03:59;;;;;;;;;2.00;0.00;;;;;-147.14;100.00;58812.66;4995446;28;62062;-69
2022/11/09 06:06:24;;;;;;;;;1.00;1.00;;;;;-147.14;100.00;58812.66;4995073;28;68338;-70
2022/11/09 06:08:50;;;;;;;;;0.33;0.00;;;;;-147.14;100.00;58812.66;4983790;28;47121;-70
2022/11/09 06:11:15;;;;;;;;;2.33;1.33;;;;;-147.14;100.00;58812.66;4980127;28;45712;-70
2022/11/09 06:13:41;;;;;;;;;2.00;1.00;;;;;-147.14;100.00;58812.66;4986635;28;45874;-70
2022/11/09 06:16:07;;;;;;;;;1.67;0.00;;;;;-147.14;100.00;58812.66;4989395;28;58442;-69
2022/11/09 06:18:35;;;;;;;;;2.33;1.00;;;;;-147.14;100.00;58812.66;4985612;28;45510;-70
2022/11/09 06:21:02;;;;;;;;;0.33;0.33;;;;;-147.14;100.00;58812.66;4990709;28;45513;-70
2022/11/09 06:23:29;;;;;;;;;2.00;0.67;;;;;-147.14;100.00;58812.66;4996445;28;45574;-70
2022/11/09 06:25:59;;;;;;;;;2.67;0.00;;;;;-147.14;100.00;58812.66;4986297;28;45596;-70
2022/11/09 06:28:25;;;;;;;;;1.67;1.00;;;;;-147.14;100.00;58812.66;4994505;28;46112;-69
2022/11/09 06:30:51;;;;;;;;;2.00;0.00;;;;;-147.14;100.00;58812.66;4990849;28;46806;-71
2022/11/09 06:33:17;;;;;;;;;0.00;0.00;;;;;-147.14;100.00;58812.66;4991255;28;45460;-73
2022/11/09 06:35:45;;;;;;;;;1.67;0.00;;;;;-147.14;100.00;58812.66;4992153;28;45370;-70
2022/11/09 06:38:13;;;;;;;;;3.33;1.67;;;;;-147.14;100.00;58812.66;4996610;28;46193;-72
2022/11/09 06:40:39;;;;;;;;;1.00;0.00;;;;;-147.14;100.00;58812.66;4992713;28;45571;-72
2022/11/09 06:43:04;;;;;;;;;2.00;2.00;;;;;-147.14;100.00;58812.66;4986246;28;45513;-69
2022/11/09 06:45:30;;;;;;;;;1.67;1.67;;;;;-147.14;100.00;58812.66;4998435;28;45392;-69
2022/11/09 06:47:57;;;;;;;;;1.00;1.00;;;;;-147.14;100.00;58812.66;5004193;28;47094;-70
2022/11/09 06:50:22;;;;;;;;;2.00;1.00;;;;;-147.14;100.00;58812.66;4991264;28;45417;-69
2022/11/09 06:52:48;;;;;;;;;4.00;1.00;;;;;-147.14;100.00;58812.66;4990880;28;45500;-70
2022/11/09 06:55:13;;;;;;;;;0.67;0.67;;;;;-147.14;100.00;58812.66;4990631;28;45495;-70
2022/11/09 06:57:39;;;;;;;;;0.33;0.33;;;;;-147.14;100.00;58812.66;4983087;28;48405;-69
2022/11/09 07:00:06;;;;;;;;;1.00;1.00;;;;;-147.14;100.00;58812.66;5000144;28;48632;-70
2022/11/09 07:02:31;;;;;;;;;4.00;1.00;;;;;-147.14;100.00;58812.66;4993070;28;45336;-70
2022/11/09 07:04:57;;;;;;;;;2.00;2.00;;;;;-147.14;100.00;58812.66;4991343;28;45547;-70
2022/11/09 07:07:22;;;;;;;;;4.00;3.00;;;;;-147.14;100.00;58812.66;4984650;28;61749;-69
2022/11/09 07:09:48;;;;;;;;;5.00;1.00;;;;;-147.14;100.00;58812.66;4981825;28;45500;-69
2022/11/09 07:12:13;;;;;;;;;4.33;1.00;;;;;-147.14;100.00;58812.66;4993541;28;61406;-69
2022/11/09 07:14:38;;;;;;;;;1.33;1.00;;;;;-147.14;100.00;58812.66;4982141;28;45638;-69
2022/11/09 07:17:04;;;;;;;;;3.00;3.00;;;;;-147.14;100.00;58812.66;4984890;28;69645;-69
2022/11/09 07:19:30;;;;;;;;;2.00;2.00;;;;;-147.14;100.00;58812.66;4988935;28;45559;-69
2022/11/09 07:21:56;;;;;;;;;5.00;2.67;;;;;-147.14;100.00;58812.66;4993960;28;63511;-69
2022/11/09 07:24:22;;;;;;;;;2.00;2.00;;;;;-147.14;100.00;58812.66;4991898;28;45626;-69
2022/11/09 07:26:48;;;;;;;;;3.00;3.00;;;;;-147.14;100.00;58812.66;4998255;28;46373;-69
2022/11/09 07:29:13;;;;;;;;;3.00;3.00;;;;;-147.14;100.00;58812.66;4984281;28;45519;-69
2022/11/09 07:32:09;;;;;;;;;5.67;3.00;;;;;-147.14;100.00;58812.66;4980199;28;45363;-74
2022/11/09 07:34:35;;;;;;;;;6.00;2.33;;;;;-147.14;100.00;58812.66;4979543;28;45522;-74
2022/11/09 07:37:00;;;;;;;;;5.00;3.00;;;;;-147.14;100.00;58812.66;4976282;28;46081;-74
2022/11/09 07:39:26;;;;;;;;;4.00;2.00;;;;;-147.14;100.00;58812.66;4978087;28;70751;-74
2022/11/09 07:41:51;;;;;;;;;5.67;4.00;;;;;-147.14;100.00;58812.66;4973568;28;68908;-75
2022/11/09 07:44:19;;;;;;;;;5.33;2.00;;;;;-147.14;100.00;58812.66;4974414;28;59013;-75
2022/11/09 07:46:48;;;;;;;;;2.33;2.00;;;;;-147.14;100.00;58812.66;4975577;28;46287;-75
2022/11/09 07:49:15;;;;;;;;;4.67;2.33;;;;;-147.14;100.00;58812.66;4977894;28;45410;-74
2022/11/09 07:51:41;;;;;;;;;3.00;2.00;;;;;-147.14;100.00;58812.66;4979247;28;45654;-74
2022/11/09 07:54:07;;;;;;;;;5.00;3.33;;;;;-147.14;100.00;58812.66;4977690;28;45817;-74
2022/11/09 07:56:32;;;;;;;;;3.67;3.00;;;;;-147.14;100.00;58812.66;4978203;28;45475;-74
2022/11/09 07:58:57;;;;;;;;;3.00;3.00;;;;;-147.14;100.00;58812.66;4978169;28;56697;-74
2022/11/09 08:01:23;;;;;;;;;6.67;2.33;;;;;-147.14;100.00;58812.66;4974033;28;62704;-74
2022/11/09 08:03:48;;;;;;;;;4.00;2.67;;;;;-147.14;100.00;58812.66;4976502;28;45651;-74
2022/11/09 08:06:13;;;;;;;;;4.00;2.00;;;;;-147.14;100.00;58812.66;4977831;28;69464;-74
2022/11/09 08:08:39;;;;;;;;;2.00;2.00;;;;;-147.14;100.00;58812.66;4978581;28;45410;-74
2022/11/09 08:11:04;;;;;;;;;3.33;3.33;;;;;-147.14;100.00;58812.66;4973269;28;63835;-74
2022/11/09 08:13:31;;;;;;;;;3.33;3.33;;;;;-147.14;100.00;58812.66;4978885;28;45664;-73
2022/11/09 08:15:56;;;;;;;;;6.00;4.00;;;;;-147.14;100.00;58812.66;4978254;28;55929;-74
2022/11/09 08:18:22;;;;;;;;;6.33;2.00;;;;;-147.14;100.00;58812.66;4976204;28;62289;-74
2022/11/09 08:20:48;;;;;;;;;2.00;2.00;;;;;-147.14;100.00;58812.66;4979345;28;45545;-74
2022/11/09 08:23:14;;;;;;;;;2.67;1.00;;;;;-147.14;100.00;58812.66;4963750;28;45745;-73
2022/11/09 08:25:40;;;;;;;;;3.33;3.00;;;;;-147.14;100.00;58812.66;4968961;28;46167;-74
2022/11/09 08:28:06;;;;;;;;;3.67;3.00;;;;;-147.14;100.00;58812.66;4979629;28;45389;-74
2022/11/09 08:30:32;;;;;;;;;1.33;1.00;;;;;-147.14;100.00;58812.66;4978832;28;45524;-75
2022/11/09 08:32:59;;;;;;;;;3.67;3.00;;;;;-147.14;100.00;58812.66;4979007;28;60128;-73
2022/11/09 08:35:25;;;;;;;;;5.00;3.00;;;;;-147.14;100.00;58812.66;4979320;28;46124;-73
2022/11/09 08:37:52;;;;;;;;;4.33;3.00;;;;;-147.14;100.00;58812.66;4970506;28;45694;-73
2022/11/09 08:40:20;;;;;;;;;4.00;4.00;;;;;-147.14;100.00;58812.66;4970507;28;45738;-73
2022/11/09 08:42:46;;;;;;;;;8.00;5.33;;;;;-147.14;100.00;58812.66;4976273;28;45401;-73
2022/11/09 08:45:11;;;;;;;;;5.00;3.00;;;;;-147.14;100.00;58812.66;4967928;28;46140;-75
2022/11/09 08:47:40;;;;;;;;;4.00;2.33;;;;;-147.14;100.00;58812.66;4969656;28;45424;-73
2022/11/09 08:50:07;;;;;;;;;2.67;1.00;;;;;-147.14;100.00;58812.66;4979110;28;45235;-73
2022/11/09 08:52:33;;;;;;;;;2.00;2.00;;;;;-147.14;100.00;58812.66;4974739;28;45280;-74
2022/11/09 08:54:58;;;;;;;;;2.33;1.33;;;;;-147.14;100.00;58812.66;4969332;28;46071;-74
2022/11/09 08:57:24;;;;;;;;;5.00;2.33;;;;;-147.14;100.00;58812.66;4967097;28;61658;-74
2022/11/09 08:59:49;;;;;;;;;3.33;1.33;;;;;-147.14;100.00;58812.66;4977443;28;45448;-74
2022/11/09 09:02:14;;;;;;;;;3.33;1.33;;;;;-147.14;100.00;58812.66;4974813;28;45264;-74
2022/11/09 09:04:40;;;;;;;;;2.00;2.00;;;;;-147.14;100.00;58812.66;4977892;28;45417;-74
2022/11/09 09:07:05;;;;;;;;;4.00;2.00;;;;;-147.14;100.00;58812.66;4973915;28;45316;-75
2022/11/09 09:09:31;;;;;;;;;3.33;3.33;;;;;-147.14;100.00;58812.66;4973933;28;45485;-74
2022/11/09 09:11:56;;;;;;;;;4.00;2.00;;;;;-147.14;100.00;58812.66;4969379;28;45555;-74
2022/11/09 09:14:22;;;;;;;;;2.00;1.67;;;;;-147.14;100.00;58812.66;4976686;28;45567;-74
2022/11/09 09:16:47;;;;;;;;;3.67;1.00;;;;;-147.14;100.00;58812.66;4977944;28;45657;-74
2022/11/09 09:19:12;;;;;;;;;2.67;0.67;;;;;-147.14;100.00;58812.66;4975956;28;45783;-74
2022/11/09 09:21:38;;;;;;;;;2.00;1.33;;;;;-147.14;100.00;58812.66;4977806;28;64747;-75
2022/11/09 09:24:04;;;;;;;;;3.00;1.67;;;;;-147.14;100.00;58812.66;4977795;28;62738;-75
2022/11/09 09:26:29;;;;;;;;;2.00;2.00;;;;;-147.14;100.00;58812.66;4970582;28;45467;-74
2022/11/09 09:28:55;;;;;;;;;1.67;1.67;;;;;-147.14;100.00;58812.66;4975265;28;66010;-75
2022/11/09 09:31:20;;;;;;;;;1.50;1.00;;;;;-147.14;100.00;58812.66;4980867;28;65776;-74
2022/11/09 09:33:46;;;;;;;;;3.33;1.00;;;;;-147.14;100.00;58812.66;4978451;28;74848;-73
2022/11/09 09:36:19;;;;;;;;;1.50;1.50;;;;;-147.14;100.00;58812.66;4991284;28;45443;-74
2022/11/09 09:38:45;;;;;;;;;8.00;1.00;;;;;-147.14;100.00;58812.66;4993906;28;45503;-74
2022/11/09 09:41:41;;;;;;;;;1.00;1.00;;;;;-147.14;100.00;58812.66;4995482;28;45460;-75
2022/11/09 09:44:22;;;;;;;;;2.00;1.00;;;;;-147.14;100.00;58812.66;4985382;28;46027;-72
2022/11/09 09:46:59;;;;;;;;;2.25;1.75;;;;;-147.14;100.00;58812.66;4987969;28;45607;-73
2022/11/09 09:49:27;;;;;;;;;0.75;0.00;;;;;-147.14;100.00;58812.66;4996406;28;45471;-74
2022/11/09 09:52:06;;;;;;;;;1.00;0.75;;;;;-147.14;100.00;58812.66;4988795;28;45594;-74
2022/11/09 09:54:40;;;;;;;;;2.00;0.50;;;;;-147.14;100.00;58812.66;4989497;28;46463;-74
2022/11/09 09:57:12;;;;;;;;;4.50;1.00;;;;;-147.14;100.00;58812.66;4991275;28;45524;-74
2022/11/09 09:59:40;;;;;;;;;3.00;0.50;;;;;-147.14;100.00;58812.66;4990912;28;45497;-74
2022/11/09 10:02:26;;;;;;;;;1.50;1.00;;;;;-147.14;100.00;58812.66;4996866;28;45467;-74
2022/11/09 10:04:54;;;;;;;;;3.75;1.25;;;;;-147.14;100.00;58812.66;4991378;28;46588;-74
2022/11/09 10:07:29;;;;;;;;;1.00;1.00;;;;;-147.14;100.00;58812.66;4992188;28;45424;-74
2022/11/09 10:10:07;;;;;;;;;2.00;0.00;;;;;-147.14;100.00;58812.66;4999645;28;45493;-74
2022/11/09 10:13:26;;;;;;;;;3.00;2.75;;;;;-147.14;100.00;58812.66;4991139;28;45537;-74
2022/11/09 10:16:13;;;;;;;;;2.00;1.00;;;;;-147.14;100.00;58812.66;4973644;28;46376;-74
2022/11/09 10:19:23;;;;;;;;;1.00;1.00;;;;;-147.14;100.00;58812.66;5001341;28;45436;-74
2022/11/09 10:21:55;;;;;;;;;2.50;1.25;;;;;-147.14;100.00;58812.66;4981686;28;45446;-74
2022/11/09 10:24:29;;;;;;;;;1.50;1.00;;;;;-147.14;100.00;58812.66;4997054;28;45648;-74
2022/11/09 10:26:56;;;;;;;;;1.00;0.00;;;;;-147.14;100.00;58812.66;5003041;28;45531;-74
2022/11/09 10:29:42;;;;;;;;;2.50;2.00;;;;;-147.14;100.00;58812.66;5003969;28;45766;-75
2022/11/09 10:32:14;;;;;;;;;3.50;2.25;;;;;-147.14;100.00;58812.66;4995766;28;45302;-75
2022/11/09 10:34:59;;;;;;;;;3.00;2.00;;;;;-147.14;100.00;58812.66;4995213;28;45305;-74
2022/11/09 10:37:32;;;;;;;;;2.50;0.75;;;;;-147.14;100.00;58812.66;4995863;28;45412;-74
2022/11/09 10:40:20;;;;;;;;;3.25;1.00;;;;;-147.14;100.00;58812.66;4997423;28;45459;-74
2022/11/09 10:43:09;;;;;;;;;4.00;2.00;;;;;-147.14;100.00;58812.66;5009808;28;45336;-74
2022/11/09 10:45:37;;;;;;;;;2.00;2.00;;;;;-147.14;100.00;58812.66;4988920;28;45795;-73
2022/11/09 10:48:03;;;;;;;;;4.00;3.00;;;;;-147.14;100.00;58812.66;5003518;28;46075;-73
2022/11/09 10:50:50;;;;;;;;;2.00;2.00;;;;;-147.14;100.00;58812.66;4996910;28;45469;-74
2022/11/09 10:53:18;;;;;;;;;5.00;2.50;;;;;-147.14;100.00;58812.66;4998566;28;45479;-74
2022/11/09 10:55:56;;;;;;;;;1.00;1.00;;;;;-147.14;100.00;58812.66;4993852;28;45503;-74
2022/11/09 10:58:29;;;;;;;;;5.00;3.00;;;;;-147.14;100.00;58812.66;4997812;28;46313;-73
2022/11/09 11:01:02;;;;;;;;;3.75;2.50;;;;;-147.14;100.00;58812.66;4995741;28;45372;-74
2022/11/09 11:03:29;;;;;;;;;3.25;2.50;;;;;-147.14;100.00;58812.66;4995998;28;45546;-73
2022/11/09 11:06:06;;;;;;;;;0.50;0.50;;;;;-147.14;100.00;58812.66;5001067;28;45358;-74
2022/11/09 11:08:39;;;;;;;;;2.00;0.00;;;;;-147.14;100.00;58812.66;4999324;28;46201;-74
2022/11/09 11:11:21;;;;;;;;;1.00;1.00;;;;;-147.14;100.00;58812.66;4996793;28;45243;-74
2022/11/09 11:13:48;;;;;;;;;3.75;0.75;;;;;-147.14;100.00;58812.66;4998341;28;45384;-74
2022/11/09 11:16:14;;;;;;;;;0.50;0.25;;;;;-147.14;100.00;58812.66;4994025;28;45741;-73
2022/11/09 11:18:43;;;;;;;;;4.25;3.00;;;;;-147.14;100.00;58812.66;4995630;28;46027;-74
2022/11/09 11:21:15;;;;;;;;;2.00;1.00;;;;;-147.14;100.00;58812.66;4994176;28;45438;-73
2022/11/09 11:23:41;;;;;;;;;1.00;1.00;;;;;-147.14;100.00;58812.66;4997554;28;45381;-75
2022/11/09 11:26:21;;;;;;;;;4.50;1.50;;;;;-147.14;100.00;58812.66;4997938;28;45612;-73
2022/11/09 11:29:28;;;;;;;;;1.00;1.00;;;;;-147.14;100.00;58812.66;4988640;28;46164;-72
2022/11/09 11:31:54;;;;;;;;;1.50;1.00;;;;;-147.14;100.00;58812.66;4995617;28;45507;-74
2022/11/09 11:34:19;;;;;;;;;1.00;1.00;;;;;-147.14;100.00;58812.66;4990023;28;63692;-76
2022/11/09 11:37:07;;;;;;;;;3.00;1.25;;;;;-147.14;100.00;58812.66;4998244;28;64046;-75
2022/11/09 11:39:35;;;;;;;;;1.75;1.00;;;;;-147.14;100.00;58812.66;4993769;28;47040;-74
2022/11/09 11:42:19;;;;;;;;;1.75;1.75;;;;;-147.14;100.00;58812.66;4989976;28;45530;-74
2022/11/09 11:45:03;;;;;;;;;3.50;1.50;;;;;-147.14;100.00;58812.66;4989709;28;45356;-76
2022/11/09 11:47:38;;;;;;;;;1.25;1.25;;;;;-147.14;100.00;58812.66;4993119;28;45448;-76
2022/11/09 11:50:40;;;;;;;;;6.00;2.00;;;;;-147.14;100.00;58812.66;4988962;28;45441;-75
2022/11/09 11:53:12;;;;;;;;;3.00;3.00;;;;;-147.14;100.00;58812.66;4987193;28;45516;-75
2022/11/09 11:56:12;;;;;;;;;2.75;2.75;;;;;-147.14;100.00;58812.66;5013520;28;45522;-75
2022/11/09 11:58:37;;;;;;;;;2.50;1.75;;;;;-147.14;100.00;58812.66;4985774;28;45384;-75
2022/11/09 12:01:26;;;;;;;;;4.50;4.00;;;;;-147.14;100.00;58812.66;4987142;28;46095;-75
2022/11/09 12:04:05;;;;;;;;;4.25;2.75;;;;;-147.14;100.00;58812.66;4993318;28;45424;-75
2022/11/09 12:06:37;;;;;;;;;2.00;2.00;;;;;-147.14;100.00;58812.66;4994008;28;46988;-75
2022/11/09 12:09:11;;;;;;;;;2.50;2.00;;;;;-147.14;100.00;58812.66;4993876;28;45577;-74
2022/11/09 12:11:56;;;;;;;;;7.00;4.00;;;;;-147.14;100.00;58812.66;4992113;28;46686;-75
2022/11/09 12:14:45;;;;;;;;;2.50;2.50;;;;;-147.14;100.00;58812.66;4994455;28;45419;-75
2022/11/09 12:17:24;;;;;;;;;5.00;5.00;;;;;-147.14;100.00;58812.66;4986831;28;45398;-74
2022/11/09 12:20:27;;;;;;;;;3.25;1.50;;;;;-147.14;100.00;58812.66;4983330;28;45396;-73
2022/11/09 12:23:24;;;;;;;;;2.00;2.00;;;;;-147.14;100.00;58812.66;4984360;28;45723;-75
2022/11/09 12:26:28;;;;;;;;;2.00;2.00;;;;;-147.14;100.00;58812.66;4988036;28;45464;-74
2022/11/09 12:29:02;;;;;;;;;6.00;3.00;;;;;-147.14;100.00;58812.66;4969654;28;45492;-74
2022/11/09 12:31:49;;;;;;;;;3.50;2.75;;;;;-147.14;100.00;58812.66;4988844;28;45440;-74
2022/11/09 12:34:35;;;;;;;;;2.25;1.25;;;;;-147.14;100.00;58812.66;4989112;28;45523;-74
2022/11/09 12:37:03;;;;;;;;;1.75;1.75;;;;;-147.14;100.00;58812.66;4987500;28;45763;-75
2022/11/09 12:39:54;;;;;;;;;3.50;1.00;;;;;-147.14;100.00;58812.66;5008490;28;45475;-75
2022/11/09 12:42:25;;;;;;;;;3.00;3.00;;;;;-147.14;100.00;58812.66;5003513;28;45440;-74
2022/11/09 12:45:04;;;;;;;;;3.50;2.00;;;;;-147.14;100.00;58812.66;4987253;28;46290;-74
2022/11/09 12:47:36;;;;;;;;;3.75;3.75;;;;;-147.14;100.00;58812.66;5007452;28;45444;-57
2022/11/09 12:50:02;;;;;;;;;11.00;2.00;;;;;-147.14;100.00;58812.66;4989112;28;45484;-58
2022/11/09 12:52:28;;;;;;;;;2.50;1.50;;;;;-147.14;100.00;58812.66;4993729;28;45555;-58
2022/11/09 12:54:55;;;;;;;;;3.00;1.00;;;;;-147.14;100.00;58812.66;4984956;28;65843;-57
2022/11/09 12:57:23;;;;;;;;;3.00;1.75;;;;;-147.14;100.00;58812.66;5003551;28;57332;-57
2022/11/09 12:59:52;;;;;;;;;2.00;1.25;;;;;-147.14;100.00;58812.66;4985348;28;45468;-57
2022/11/09 13:02:23;;;;;;;;;1.00;1.00;;;;;-147.14;100.00;58812.66;4987836;28;45435;-57
2022/11/09 13:05:07;;;;;;;;;1.50;0.25;;;;;-147.14;100.00;58812.66;4990126;28;46300;-57
2022/11/09 13:07:52;;;;;;;;;2.50;1.00;;;;;-147.14;100.00;58812.66;4986828;28;46446;-57
2022/11/09 13:10:33;;;;;;;;;0.00;0.00;;;;;-147.14;100.00;58812.66;4986755;28;46450;-57
2022/11/09 13:13:10;;;;;;;;;1.75;1.00;;;;;-147.14;100.00;58812.66;4989683;28;45543;-56
2022/11/09 13:15:37;;;;;;;;;4.00;1.00;;;;;-147.14;100.00;58812.66;4993616;28;47163;-58
2022/11/09 13:18:04;;;;;;;;;2.25;1.25;;;;;-147.14;100.00;58812.66;4985327;28;45538;-57
2022/11/09 13:20:38;;;;;;;;;3.00;2.00;;;;;-147.14;100.00;58812.66;4986681;28;45509;-57
2022/11/09 13:23:27;;;;;;;;;2.00;2.00;;;;;-147.14;100.00;58812.66;4990619;28;46378;-57
2022/11/09 13:25:52;;;;;;;;;1.75;0.00;;;;;-147.14;100.00;58812.66;4993429;28;45498;-57
2022/11/09 13:28:27;;;;;;;;;1.00;1.00;;;;;-147.14;100.00;58812.66;4989323;28;57393;-58
2022/11/09 13:30:57;;;;;;;;;1.00;1.00;;;;;-147.14;100.00;58812.66;4984163;28;45380;-58
2022/11/09 13:33:24;;;;;;;;;2.00;0.50;;;;;-147.14;100.00;58812.66;4984698;28;46060;-56
2022/11/09 13:35:49;;;;;;;;;1.25;1.00;;;;;-147.14;100.00;58812.66;4987558;28;45408;-58
2022/11/09 13:38:23;;;;;;;;;1.00;0.75;;;;;-147.14;100.00;58812.66;4987577;28;45546;-56
2022/11/09 13:40:57;;;;;;;;;2.50;1.50;;;;;-147.14;100.00;58812.66;4989802;28;45364;-56
2022/11/09 13:43:25;;;;;;;;;0.00;0.00;;;;;-147.14;100.00;58812.66;4989744;28;45487;-56
2022/11/09 13:46:02;;;;;;;;;1.00;0.00;;;;;-147.14;100.00;58812.66;4985617;28;46371;-55
2022/11/09 13:48:45;;;;;;;;;5.25;1.00;;;;;-147.14;100.00;58812.66;4990123;28;45713;-57
2022/11/09 13:51:17;;;;;;;;;1.75;0.50;;;;;-147.14;100.00;58812.66;4993214;28;45500;-57
2022/11/09 13:53:53;;;;;;;;;2.75;1.75;;;;;-147.14;100.00;58812.66;4987056;28;45564;-57
2022/11/09 13:56:36;;;;;;;;;2.00;0.50;;;;;-147.14;100.00;58812.66;4992035;28;45423;-56
2022/11/09 13:59:17;;;;;;;;;2.00;1.00;;;;;-147.14;100.00;58812.66;4994173;28;45505;-57
2022/11/09 14:01:49;;;;;;;;;4.00;1.00;;;;;-147.14;100.00;58812.66;4984849;28;45427;-58
2022/11/09 14:04:25;;;;;;;;;2.50;1.00;;;;;-147.14;100.00;58812.66;4996586;28;45618;-57
2022/11/09 14:06:59;;;;;;;;;1.00;0.25;;;;;-147.14;100.00;58812.66;4984745;28;45593;-57
2022/11/09 14:09:25;;;;;;;;;5.00;0.00;;;;;-147.14;100.00;58812.66;4997702;28;45539;-57
2022/11/09 14:12:12;;;;;;;;;1.25;1.00;;;;;-147.14;100.00;58812.66;4995960;28;64162;-56
2022/11/09 14:14:49;;;;;;;;;0.75;0.50;;;;;-147.14;100.00;58812.66;4996025;28;45329;-56
2022/11/09 14:17:23;;;;;;;;;2.50;0.00;;;;;-147.14;100.00;58812.66;4986814;28;45875;-57
2022/11/09 14:20:16;;;;;;;;;0.00;0.00;;;;;-147.14;100.00;58812.66;4993014;28;45421;-57
2022/11/09 14:22:42;;;;;;;;;0.50;0.50;;;;;-147.14;100.00;58812.66;4991320;28;45490;-57
2022/11/09 14:25:19;;;;;;;;;0.75;0.75;;;;;-147.14;100.00;58812.66;4988689;28;65583;-57
2022/11/09 14:27:46;;;;;;;;;1.00;1.00;;;;;-147.14;100.00;58812.66;5008264;28;46178;-56
2022/11/09 14:30:16;;;;;;;;;1.25;1.25;;;;;-147.14;100.00;58812.66;4996758;28;45442;-57
2022/11/09 14:32:47;;;;;;;;;1.00;1.00;;;;;-147.14;100.00;58812.66;5009678;28;46901;-57
2022/11/09 14:35:22;;;;;;;;;0.00;0.00;;;;;-147.14;100.00;58812.66;4984930;28;45473;-57
2022/11/09 14:37:48;;;;;;;;;0.50;0.50;;;;;-147.14;100.00;58812.66;4990688;28;45570;-56
2022/11/09 14:40:26;;;;;;;;;1.25;1.25;;;;;-147.14;100.00;58812.66;4985019;28;45527;-56
2022/11/09 14:43:09;;;;;;;;;1.00;1.00;;;;;-147.14;100.00;58812.66;4995186;28;45469;-57
2022/11/09 14:45:34;;;;;;;;;2.00;0.50;;;;;-147.14;100.00;58812.66;4984541;28;45304;-56
2022/11/09 14:48:00;;;;;;;;;0.25;0.25;;;;;-147.14;100.00;58812.66;4993004;28;46785;-55
2022/11/09 14:50:28;;;;;;;;;2.33;1.00;;;;;-147.14;100.00;58812.66;4992147;28;68053;-58
2022/11/09 14:52:54;;;;;;;;;2.50;1.00;;;;;-147.14;100.00;58812.66;4995955;28;45776;-57
2022/11/09 14:55:22;;;;;;;;;0.75;0.75;;;;;-147.14;100.00;58812.66;4996385;28;45422;-57
2022/11/09 14:57:48;;;;;;;;;2.33;1.67;;;;;-147.14;100.00;58812.66;4991027;28;46468;-56
2022/11/09 15:00:21;;;;;;;;;1.00;1.00;;;;;-147.14;100.00;58812.66;4985604;28;46669;-56
2022/11/09 15:02:46;;;;;;;;;0.75;0.00;;;;;-147.14;100.00;58812.66;4991022;28;45451;-56
2022/11/09 15:05:38;;;;;;;;;1.00;1.00;;;;;-147.14;100.00;58812.66;4991568;28;64366;-60
2022/11/09 15:08:05;;;;;;;;;0.25;0.00;;;;;-147.14;100.00;58812.66;4989337;28;46469;-59
2022/11/09 15:10:31;;;;;;;;;2.25;0.50;;;;;-147.14;100.00;58812.66;4994546;28;45461;-59
2022/11/09 15:13:00;;;;;;;;;1.00;1.00;;;;;-147.14;100.00;58812.66;4994997;28;45456;-59
2022/11/09 15:15:27;;;;;;;;;0.25;0.25;;;;;-147.14;100.00;58812.66;4995611;28;46013;-59
2022/11/09 15:17:53;;;;;;;;;2.00;0.00;;;;;-147.14;100.00;58812.66;4995655;28;45468;-59
2022/11/09 15:20:18;;;;;;;;;0.00;0.00;;;;;-147.14;100.00;58812.66;4997463;28;45230;-59
2022/11/09 15:22:53;;;;;;;;;0.00;0.00;;;;;-147.14;100.00;58812.66;4997283;28;45436;-59
2022/11/09 15:25:24;;;;;;;;;0.25;0.25;;;;;-147.14;100.00;58812.66;4998140;28;45386;-59
2022/11/09 15:28:09;;;;;;;;;1.00;1.00;;;;;-147.14;100.00;58812.66;4997374;28;45530;-59
2022/11/09 15:30:58;;;;;;;;;0.00;0.00;;;;;-147.14;100.00;58812.66;4997582;28;45328;-59
2022/11/09 15:33:28;;;;;;;;;3.00;1.00;;;;;-147.14;100.00;58812.66;4998016;28;45536;-59
2022/11/09 15:35:56;;;;;;;;;1.00;0.00;;;;;-147.14;100.00;58812.66;4998514;28;45405;-58
2022/11/09 15:38:37;;;;;;;;;1.00;0.00;;;;;-147.14;100.00;58812.66;4998298;28;46359;-58
2022/11/09 15:41:13;;;;;;;;;0.00;0.00;;;;;-147.14;100.00;58812.66;4987319;28;45456;-59
2022/11/09 15:43:39;;;;;;;;;0.00;0.00;;;;;-147.14;100.00;58812.66;4998579;28;45323;-60
2022/11/09 15:46:05;;;;;;;;;0.00;0.00;;;;;-147.14;100.00;58812.66;5000534;28;45290;-60
2022/11/09 15:48:31;;;;;;;;;1.00;1.00;;;;;-147.14;100.00;58812.66;4997061;28;46318;-59
2022/11/09 15:50:57;;;;;;;;;2.67;1.00;;;;;-147.14;100.00;58812.66;5000077;28;45428;-59
2022/11/09 15:53:22;;;;;;;;;1.00;1.00;;;;;-147.14;100.00;58812.66;4995903;28;45385;-59
2022/11/09 15:55:49;;;;;;;;;0.50;0.50;;;;;-147.14;100.00;58812.66;4990479;28;45426;-59
2022/11/09 15:58:15;;;;;;;;;1.00;1.00;;;;;-147.14;100.00;58812.66;4999920;28;45993;-59
2022/11/09 16:00:41;;;;;;;;;1.00;0.75;;;;;-147.14;100.00;58812.66;4992526;28;45499;-60
2022/11/09 16:03:07;;;;;;;;;3.00;1.67;;;;;-147.14;100.00;58812.66;4999951;28;45298;-59
2022/11/09 16:05:32;;;;;;;;;2.67;2.67;;;;;-147.14;100.00;58812.66;4999998;28;45342;-59
2022/11/09 16:07:58;;;;;;;;;1.00;1.00;;;;;-147.14;100.00;58812.66;4985331;28;57843;-58
2022/11/09 16:10:26;;;;;;;;;2.00;2.00;;;;;-147.14;100.00;58812.66;4987257;28;68977;-59
2022/11/09 16:12:51;;;;;;;;;2.33;2.00;;;;;-147.14;100.00;58812.66;4993671;28;45774;-59
2022/11/09 16:15:18;;;;;;;;;3.00;2.00;;;;;-147.14;100.00;58812.66;4993333;28;45316;-59
2022/11/09 16:17:43;;;;;;;;;4.67;4.67;;;;;-147.14;100.00;58812.66;4986761;28;46418;-60
2022/11/09 16:20:09;;;;;;;;;3.00;3.00;;;;;-147.14;100.00;58812.66;4987087;28;54275;-59
2022/11/09 16:22:34;;;;;;;;;2.67;2.67;;;;;-147.14;100.00;58812.66;4986833;28;45383;-60
2022/11/09 16:25:00;;;;;;;;;6.00;4.67;;;;;-147.14;100.00;58812.66;4986401;28;61463;-60
2022/11/09 16:27:25;;;;;;;;;4.67;3.33;;;;;-147.14;100.00;58812.66;4987414;28;46061;-59
2022/11/09 16:29:51;;;;;;;;;3.00;2.67;;;;;-147.14;100.00;58812.66;4997879;28;45440;-58
2022/11/09 16:32:16;;;;;;;;;2.33;1.33;;;;;-147.14;100.00;58812.66;4993413;28;45777;-59
2022/11/09 16:34:42;;;;;;;;;3.00;3.00;;;;;-147.14;100.00;58812.66;4978697;28;45544;-60
2022/11/09 16:37:07;;;;;;;;;6.33;4.00;;;;;-147.14;100.00;58812.66;4989760;28;69883;-59
2022/11/09 16:39:33;;;;;;;;;4.67;3.00;;;;;-147.14;100.00;58812.66;4988211;28;47443;-59
2022/11/09 16:42:01;;;;;;;;;5.33;4.33;;;;;-147.14;100.00;58812.66;4984211;28;45345;-60
2022/11/09 16:44:32;;;;;;;;;3.00;3.00;;;;;-147.14;100.00;58812.66;4990420;28;45896;-60
2022/11/09 16:46:58;;;;;;;;;2.00;2.00;;;;;-147.14;100.00;58812.66;4997570;28;47233;-60
2022/11/09 16:49:23;;;;;;;;;7.00;3.67;;;;;-147.14;100.00;58812.66;4994989;28;73165;-60
2022/11/09 16:51:48;;;;;;;;;2.33;2.33;;;;;-147.14;100.00;58812.66;4989201;28;66519;-60
2022/11/09 16:54:14;;;;;;;;;3.00;1.67;;;;;-147.14;100.00;58812.66;4984110;28;68340;-60
2022/11/09 16:56:39;;;;;;;;;1.67;1.67;;;;;-147.14;100.00;58812.66;4983659;28;46106;-60
2022/11/09 16:59:04;;;;;;;;;6.33;3.33;;;;;-147.14;100.00;58812.66;4999031;28;45410;-60